Hovedside
METAR-TAF:

METAR-TAF

Lufthavner :

Palembang, Indonesia

breddegrad: 02-54S, lengdegrad: 104-42E, høyde over havet: 10 m

Gjeldene værobservasjon

Denne rapporten ble laget for 58 minutter siden, klokken 01:30 UTC
Vind 6 kt fra Sørøst
Temperatur 28°C
Luftfuktighet 79%
Trykk 1011 hPa
Sikt: 7000 m
Spredte skyer i en høyde av 1000 ft

METAR: WIPP 220130Z 13006KT 7000 SCT010 28/24 Q1011 NOSIG

Tid: 09:28 (02:28 UTC)

Varsel

Denne rapporten ble laget for 3 timer og 28 minutter siden, klokken 23:00 UTC
Varsel gyldig fra 22. klokken 00 UTC til 22. klokken 24 UTC
Vind 7 kt fra Sør-sørøst
Sikt 10 km eller mer
Spredte skyer i en høyde av 1000 ft
Midlertidig
fra 22. klokken 20 UTC til 22. klokken 24 UTC
Sikt: 3000 m
dis,

TAF: WIPP 212300Z 2200/2224 15007KT 9999 SCT010 TEMPO 2220/2224 3000 BR

Værobservasjoner og værvarsel for over 4000 flyplasser (METAR- og TAF-rapporter).

Tilgjengelige stasjoner er representert av de røde og gule prikkene på kartet.

Hold musepekeren over prikken for å se navnet på stasjonen.

Klikk så for å se værobservasjoner og -varsler.

For å forandre kartet kan du klikke på den grønne knappen med svart kryss for å zoome inn, på den grønne knappen med strek for å zoome ut, eller på de grønne pilene for å se tilstøtende kart.


METAR-TAF: